PILOTS ONLINE: 136    ATC ONLINE: 11

LGSR

Santorini Airport

Location

IATA JTR
City Santorini Island
Country  Greece
Latitude 36° 23' 57" N
Longitude 25° 28' 45" E
Elevation 127 ft
Type Medium Airport

Map

Weather

METAR
2014/09/23 05:50
LGSR 230550Z 24017KT CAVOK 28/19 Q1009 NOSIG
TAF
2013/11/22 09:36
TAF TAF LGSR 220800Z 2209/2221 27012KT 9999 SCT025 PROB40 
      TEMPO 2209/2216 7000 RA SCT020 PROB30 
      TEMPO 2209/2211 5000 SHRA FEW018CB BKN020

Runways

16L/34R 6972 ft / 98 ft
16R/34L 0 ft / 0 ft

Outbound flights

Callsign Flying to Pilot ATD/STD ETA Aircraft

Inbound flights

Callsign Flying from Pilot ATD ETA Aircraft